DLH402 EDDF-KEWR
Flight info
| Callsign | DLH402 |
|---|---|
| Flight time | N/A |
| Altitude | 36000 |
| Route | OBOKA2E OBOKA Z28 DIBIR DCT BUDIP DCT RAVLO Y70 OTBED L60 PENIL M144 BAGSO DCT NEBIN/M079F380 NATA TUDEP/N0460F380 DCT TOPPS DCT BEEKN Q480 KYLOH DCT BAF DCT IGN DCT FLOSI FLOSI4 |
| Aircraft | A343/H-SDE2E3FGHIJ3J5M1P2RWXYZ/LB1D1 |
Departure
| Time | N/A |
|---|---|
| Airport | Frankfurt Main Airport (EDDF) |
Arrival
| Time | 2026-04-22 16:01 |
|---|---|
| Airport | Newark Liberty International Airport (KEWR) |
| Time | Latitude | Longitude | Altitude | Speed | Heading |
|---|---|---|---|---|---|
| 2026-04-22 10:48 | 54.02741 | -20.70722 | 38119 ft | 496 kts | 273° |
| 2026-04-22 10:49 | 54.02949 | -20.76556 | 38119 ft | 495 kts | 273° |
| 2026-04-22 10:49 | 54.03356 | -20.88277 | 38117 ft | 498 kts | 272° |
| 2026-04-22 10:50 | 54.03753 | -21.00071 | 38124 ft | 495 kts | 273° |
| 2026-04-22 10:50 | 54.04135 | -21.11712 | 38122 ft | 498 kts | 272° |
| 2026-04-22 10:51 | 54.04507 | -21.23445 | 38118 ft | 495 kts | 272° |
| 2026-04-22 10:51 | 54.04868 | -21.35157 | 38120 ft | 497 kts | 272° |
| 2026-04-22 10:52 | 54.05218 | -21.46894 | 38114 ft | 495 kts | 272° |
| 2026-04-22 10:52 | 54.05556 | -21.58626 | 38152 ft | 498 kts | 272° |
| 2026-04-22 10:53 | 54.05883 | -21.70382 | 38122 ft | 497 kts | 272° |
| 2026-04-22 10:53 | 54.06200 | -21.82139 | 38125 ft | 498 kts | 272° |
| 2026-04-22 10:54 | 54.06504 | -21.93901 | 38115 ft | 496 kts | 272° |
| 2026-04-22 10:54 | 54.06797 | -22.05649 | 38131 ft | 498 kts | 272° |
| 2026-04-22 10:55 | 54.07079 | -22.17418 | 38119 ft | 496 kts | 272° |
| 2026-04-22 10:55 | 54.07348 | -22.29165 | 38134 ft | 498 kts | 272° |
| 2026-04-22 10:56 | 54.07607 | -22.40950 | 38124 ft | 497 kts | 272° |
| 2026-04-22 10:56 | 54.07855 | -22.52718 | 38125 ft | 499 kts | 272° |
| 2026-04-22 10:57 | 54.08090 | -22.64435 | 38124 ft | 496 kts | 271° |
| 2026-04-22 10:57 | 54.08313 | -22.76188 | 38143 ft | 498 kts | 271° |
| 2026-04-22 10:58 | 54.08526 | -22.87969 | 38113 ft | 497 kts | 271° |
| 2026-04-22 10:58 | 54.08727 | -22.99733 | 38126 ft | 498 kts | 271° |
| 2026-04-22 10:59 | 54.08918 | -23.11499 | 38124 ft | 495 kts | 271° |
| 2026-04-22 10:59 | 54.09095 | -23.23212 | 38141 ft | 496 kts | 271° |
| 2026-04-22 11:00 | 54.09261 | -23.34945 | 38137 ft | 494 kts | 271° |
| 2026-04-22 11:00 | 54.09415 | -23.46641 | 38138 ft | 494 kts | 271° |
| 2026-04-22 11:01 | 54.09558 | -23.58332 | 38142 ft | 492 kts | 271° |
| 2026-04-22 11:01 | 54.09690 | -23.70008 | 38149 ft | 495 kts | 270° |
| 2026-04-22 11:02 | 54.09810 | -23.81719 | 38148 ft | 493 kts | 270° |
| 2026-04-22 11:02 | 54.09919 | -23.93416 | 38147 ft | 496 kts | 270° |
| 2026-04-22 11:03 | 54.10017 | -24.05070 | 38164 ft | 494 kts | 270° |
| 2026-04-22 11:03 | 54.10103 | -24.16776 | 38146 ft | 496 kts | 270° |
| 2026-04-22 11:04 | 54.10179 | -24.28496 | 38152 ft | 493 kts | 270° |
| 2026-04-22 11:04 | 54.10242 | -24.40211 | 38153 ft | 495 kts | 270° |
| 2026-04-22 11:05 | 54.10294 | -24.51920 | 38173 ft | 493 kts | 270° |
| 2026-04-22 11:05 | 54.10335 | -24.63641 | 38166 ft | 496 kts | 270° |
| 2026-04-22 11:06 | 54.10365 | -24.75362 | 38168 ft | 494 kts | 270° |
| 2026-04-22 11:06 | 54.10383 | -24.87095 | 38165 ft | 496 kts | 270° |
| 2026-04-22 11:07 | 54.10390 | -24.98725 | 38162 ft | 493 kts | 269° |
| 2026-04-22 11:07 | 54.10386 | -25.10451 | 38183 ft | 496 kts | 270° |
| 2026-04-22 11:08 | 54.10370 | -25.22156 | 38176 ft | 494 kts | 269° |
| 2026-04-22 11:08 | 54.10343 | -25.33907 | 38171 ft | 495 kts | 269° |
| 2026-04-22 11:09 | 54.10304 | -25.45611 | 38174 ft | 495 kts | 269° |
| 2026-04-22 11:09 | 54.10254 | -25.57342 | 38184 ft | 493 kts | 269° |
| 2026-04-22 11:10 | 54.10192 | -25.69028 | 38196 ft | 495 kts | 269° |
| 2026-04-22 11:10 | 54.10120 | -25.80743 | 38182 ft | 492 kts | 269° |
| 2026-04-22 11:11 | 54.10036 | -25.92428 | 38190 ft | 495 kts | 269° |
| 2026-04-22 11:11 | 54.09941 | -26.04143 | 38204 ft | 493 kts | 269° |
| 2026-04-22 11:12 | 54.09834 | -26.15842 | 38200 ft | 495 kts | 269° |
| 2026-04-22 11:12 | 54.09716 | -26.27542 | 38196 ft | 493 kts | 269° |
| 2026-04-22 11:13 | 54.09587 | -26.39194 | 38202 ft | 496 kts | 269° |
| 2026-04-22 11:13 | 54.09446 | -26.50902 | 38205 ft | 494 kts | 269° |
| 2026-04-22 11:14 | 54.09292 | -26.62658 | 38208 ft | 496 kts | 269° |
| 2026-04-22 11:14 | 54.09129 | -26.74375 | 38191 ft | 496 kts | 269° |
| 2026-04-22 11:15 | 54.08954 | -26.86117 | 38213 ft | 494 kts | 269° |
| 2026-04-22 11:15 | 54.08768 | -26.97805 | 38208 ft | 494 kts | 269° |
| 2026-04-22 11:16 | 54.08570 | -27.09493 | 38216 ft | 492 kts | 269° |
| 2026-04-22 11:16 | 54.08361 | -27.21172 | 38221 ft | 495 kts | 269° |
| 2026-04-22 11:17 | 54.08142 | -27.32871 | 38218 ft | 493 kts | 269° |
| 2026-04-22 11:17 | 54.07910 | -27.44550 | 38217 ft | 495 kts | 269° |
| 2026-04-22 11:18 | 54.07667 | -27.56210 | 38222 ft | 492 kts | 269° |
| 2026-04-22 11:18 | 54.07415 | -27.67812 | 38230 ft | 493 kts | 268° |
| 2026-04-22 11:19 | 54.07150 | -27.79469 | 38224 ft | 494 kts | 269° |
| 2026-04-22 11:19 | 54.06874 | -27.91161 | 38230 ft | 494 kts | 269° |
| 2026-04-22 11:20 | 54.06585 | -28.02839 | 38235 ft | 495 kts | 269° |
| 2026-04-22 11:20 | 54.06286 | -28.14516 | 38238 ft | 492 kts | 268° |
| 2026-04-22 11:21 | 54.05976 | -28.26163 | 38240 ft | 493 kts | 268° |
| 2026-04-22 11:21 | 54.05655 | -28.37790 | 38239 ft | 492 kts | 268° |
| 2026-04-22 11:22 | 54.05323 | -28.49437 | 38250 ft | 493 kts | 268° |
| 2026-04-22 11:22 | 54.04979 | -28.61079 | 38254 ft | 493 kts | 268° |
| 2026-04-22 11:23 | 54.04625 | -28.72713 | 38250 ft | 492 kts | 268° |
| 2026-04-22 11:23 | 54.04262 | -28.84257 | 38254 ft | 492 kts | 268° |
| 2026-04-22 11:24 | 54.03885 | -28.95875 | 38254 ft | 491 kts | 268° |
| 2026-04-22 11:24 | 54.03498 | -29.07500 | 38266 ft | 492 kts | 268° |
| 2026-04-22 11:25 | 54.03098 | -29.19122 | 38260 ft | 492 kts | 268° |
| 2026-04-22 11:25 | 54.02685 | -29.30804 | 38261 ft | 491 kts | 268° |
| 2026-04-22 11:26 | 54.02268 | -29.42297 | 38263 ft | 490 kts | 268° |
| 2026-04-22 11:26 | 54.01837 | -29.53867 | 38270 ft | 490 kts | 268° |
| 2026-04-22 11:27 | 54.01395 | -29.65431 | 38271 ft | 490 kts | 268° |
| 2026-04-22 11:27 | 54.00942 | -29.76994 | 38271 ft | 490 kts | 268° |
| 2026-04-22 11:28 | 54.00478 | -29.88540 | 38271 ft | 489 kts | 268° |
| 2026-04-22 11:28 | 54.00004 | -30.00076 | 38281 ft | 489 kts | 268° |
| 2026-04-22 11:29 | 53.99747 | -30.11624 | 38281 ft | 488 kts | 272° |
| 2026-04-22 11:29 | 53.99723 | -30.23158 | 38282 ft | 488 kts | 272° |
| 2026-04-22 11:30 | 53.99667 | -30.34693 | 38280 ft | 488 kts | 272° |
| 2026-04-22 11:30 | 53.99552 | -30.46219 | 38281 ft | 487 kts | 271° |
| 2026-04-22 11:31 | 53.99409 | -30.57656 | 38288 ft | 487 kts | 271° |
| 2026-04-22 11:31 | 53.99253 | -30.69163 | 38289 ft | 487 kts | 271° |
| 2026-04-22 11:32 | 53.99087 | -30.80676 | 38287 ft | 487 kts | 271° |
| 2026-04-22 11:32 | 53.98912 | -30.92187 | 38302 ft | 487 kts | 271° |
| 2026-04-22 11:33 | 53.98725 | -31.03690 | 38305 ft | 488 kts | 271° |
| 2026-04-22 11:33 | 53.98528 | -31.15214 | 38306 ft | 488 kts | 271° |
| 2026-04-22 11:34 | 53.98320 | -31.26720 | 38306 ft | 488 kts | 271° |
| 2026-04-22 11:34 | 53.98138 | -31.36290 | 38313 ft | 488 kts | 271° |
| 2026-04-22 11:35 | 53.97909 | -31.47807 | 38308 ft | 488 kts | 271° |
| 2026-04-22 11:35 | 53.97669 | -31.59330 | 38307 ft | 489 kts | 271° |
| 2026-04-22 11:36 | 53.97418 | -31.70867 | 38304 ft | 489 kts | 271° |
| 2026-04-22 11:36 | 53.97155 | -31.82415 | 38313 ft | 489 kts | 271° |
| 2026-04-22 11:37 | 53.96882 | -31.93961 | 38316 ft | 489 kts | 271° |
| 2026-04-22 11:37 | 53.96597 | -32.05494 | 38314 ft | 489 kts | 271° |
| 2026-04-22 11:38 | 53.96301 | -32.17037 | 38325 ft | 489 kts | 271° |
| 2026-04-22 11:38 | 53.95839 | -32.34262 | 38321 ft | 489 kts | 271° |
| 2026-04-22 11:39 | 53.95516 | -32.45789 | 38325 ft | 489 kts | 271° |
| 2026-04-22 11:39 | 53.95182 | -32.57319 | 38329 ft | 489 kts | 271° |
| 2026-04-22 11:40 | 53.94836 | -32.68829 | 38333 ft | 488 kts | 271° |
| 2026-04-22 11:40 | 53.94481 | -32.80307 | 38332 ft | 486 kts | 271° |
| 2026-04-22 11:41 | 53.94116 | -32.91767 | 38327 ft | 486 kts | 271° |
| 2026-04-22 11:41 | 53.93741 | -33.03207 | 38339 ft | 486 kts | 271° |
| 2026-04-22 11:42 | 53.93355 | -33.14652 | 38336 ft | 486 kts | 271° |
| 2026-04-22 11:42 | 53.92958 | -33.26095 | 38335 ft | 486 kts | 271° |
| 2026-04-22 11:43 | 53.92549 | -33.37547 | 38337 ft | 486 kts | 271° |
| 2026-04-22 11:43 | 53.92130 | -33.48967 | 38347 ft | 485 kts | 271° |
| 2026-04-22 11:44 | 53.91701 | -33.60380 | 38347 ft | 485 kts | 271° |
| 2026-04-22 11:44 | 53.91261 | -33.71780 | 38347 ft | 485 kts | 271° |
| 2026-04-22 11:45 | 53.90814 | -33.83118 | 38341 ft | 485 kts | 271° |
| 2026-04-22 11:45 | 53.90352 | -33.94525 | 38350 ft | 485 kts | 270° |
| 2026-04-22 11:46 | 53.89879 | -34.05930 | 38350 ft | 485 kts | 270° |
| 2026-04-22 11:46 | 53.89396 | -34.17334 | 38350 ft | 485 kts | 270° |
| 2026-04-22 11:47 | 53.88901 | -34.28749 | 38350 ft | 485 kts | 270° |
| 2026-04-22 11:47 | 53.88396 | -34.40150 | 38350 ft | 485 kts | 270° |
| 2026-04-22 11:48 | 53.87880 | -34.51550 | 38336 ft | 485 kts | 270° |
| 2026-04-22 11:48 | 53.87354 | -34.62941 | 38349 ft | 485 kts | 270° |
| 2026-04-22 11:49 | 53.86817 | -34.74327 | 38337 ft | 485 kts | 270° |
| 2026-04-22 11:49 | 53.86268 | -34.85731 | 38358 ft | 486 kts | 270° |
| 2026-04-22 11:50 | 53.85708 | -34.97139 | 38352 ft | 486 kts | 270° |
| 2026-04-22 11:50 | 53.85137 | -35.08531 | 38349 ft | 486 kts | 270° |
| 2026-04-22 11:51 | 53.84555 | -35.19935 | 38361 ft | 486 kts | 270° |
| 2026-04-22 11:51 | 53.83963 | -35.31341 | 38368 ft | 486 kts | 270° |
| 2026-04-22 11:52 | 53.83360 | -35.42726 | 38354 ft | 486 kts | 270° |
| 2026-04-22 11:52 | 53.82749 | -35.54054 | 38370 ft | 486 kts | 269° |
| 2026-04-22 11:53 | 53.82125 | -35.65441 | 38359 ft | 486 kts | 269° |
| 2026-04-22 11:53 | 53.81489 | -35.76827 | 38360 ft | 486 kts | 269° |
| 2026-04-22 11:54 | 53.80843 | -35.88212 | 38360 ft | 486 kts | 269° |
| 2026-04-22 11:54 | 53.80186 | -35.99589 | 38361 ft | 486 kts | 269° |
| 2026-04-22 11:55 | 53.79517 | -36.10976 | 38364 ft | 486 kts | 269° |
| 2026-04-22 11:55 | 53.78838 | -36.22351 | 38364 ft | 486 kts | 269° |
| 2026-04-22 11:56 | 53.78148 | -36.33729 | 38360 ft | 486 kts | 269° |
| 2026-04-22 11:56 | 53.77448 | -36.45087 | 38369 ft | 486 kts | 269° |
| 2026-04-22 11:57 | 53.76737 | -36.56452 | 38373 ft | 486 kts | 268° |
| 2026-04-22 11:57 | 53.76015 | -36.67810 | 38367 ft | 486 kts | 268° |
| 2026-04-22 11:58 | 53.75283 | -36.79163 | 38366 ft | 486 kts | 268° |
| 2026-04-22 11:58 | 53.74539 | -36.90520 | 38360 ft | 486 kts | 268° |
| 2026-04-22 11:59 | 53.73787 | -37.01827 | 38364 ft | 484 kts | 268° |
| 2026-04-22 11:59 | 53.73030 | -37.13049 | 38371 ft | 484 kts | 268° |
| 2026-04-22 12:00 | 53.72255 | -37.24400 | 38367 ft | 484 kts | 268° |
| 2026-04-22 12:00 | 53.71473 | -37.35681 | 38366 ft | 484 kts | 268° |
| 2026-04-22 12:01 | 53.70680 | -37.46962 | 38343 ft | 484 kts | 268° |
| 2026-04-22 12:01 | 53.69882 | -37.58154 | 38372 ft | 483 kts | 268° |
| 2026-04-22 12:02 | 53.69069 | -37.69408 | 38371 ft | 483 kts | 268° |
| 2026-04-22 12:02 | 53.68246 | -37.80653 | 38372 ft | 483 kts | 267° |
| 2026-04-22 12:03 | 53.67412 | -37.91900 | 38371 ft | 483 kts | 267° |
| 2026-04-22 12:03 | 53.66567 | -38.03134 | 38371 ft | 482 kts | 267° |
| 2026-04-22 12:04 | 53.65716 | -38.14316 | 38373 ft | 480 kts | 267° |
| 2026-04-22 12:04 | 53.64856 | -38.25468 | 38373 ft | 479 kts | 267° |
| 2026-04-22 12:05 | 53.63988 | -38.36611 | 38371 ft | 479 kts | 267° |
| 2026-04-22 12:05 | 53.63108 | -38.47752 | 38371 ft | 480 kts | 266° |
| 2026-04-22 12:06 | 53.62218 | -38.58888 | 38371 ft | 480 kts | 266° |
| 2026-04-22 12:06 | 53.61318 | -38.70009 | 38368 ft | 479 kts | 266° |
| 2026-04-22 12:07 | 53.60410 | -38.81099 | 38371 ft | 478 kts | 266° |
| 2026-04-22 12:07 | 53.59492 | -38.92179 | 38371 ft | 478 kts | 266° |
| 2026-04-22 12:08 | 53.58566 | -39.03241 | 38364 ft | 477 kts | 266° |
| 2026-04-22 12:08 | 53.57631 | -39.14265 | 38374 ft | 476 kts | 266° |
| 2026-04-22 12:09 | 53.56694 | -39.25207 | 38355 ft | 475 kts | 266° |
| 2026-04-22 12:09 | 53.55742 | -39.36188 | 38368 ft | 474 kts | 266° |
| 2026-04-22 12:10 | 53.54781 | -39.47162 | 38382 ft | 474 kts | 266° |
| 2026-04-22 12:10 | 53.53812 | -39.58115 | 38381 ft | 474 kts | 266° |
| 2026-04-22 12:11 | 53.52831 | -39.69077 | 38367 ft | 474 kts | 266° |
| 2026-04-22 12:11 | 53.51839 | -39.80035 | 38369 ft | 474 kts | 266° |
| 2026-04-22 12:12 | 53.50839 | -39.90977 | 38368 ft | 474 kts | 265° |
| 2026-04-22 12:12 | 53.49827 | -40.01930 | 38366 ft | 474 kts | 265° |
| 2026-04-22 12:13 | 53.48715 | -40.12839 | 38372 ft | 474 kts | 264° |
| 2026-04-22 12:13 | 53.47545 | -40.23654 | 38372 ft | 474 kts | 264° |
| 2026-04-22 12:14 | 53.46362 | -40.34604 | 38374 ft | 474 kts | 264° |
| 2026-04-22 12:14 | 53.45190 | -40.45477 | 38371 ft | 473 kts | 265° |
| 2026-04-22 12:15 | 53.44023 | -40.56251 | 38371 ft | 473 kts | 264° |
| 2026-04-22 12:15 | 53.42840 | -40.67089 | 38371 ft | 473 kts | 264° |
| 2026-04-22 12:16 | 53.41647 | -40.77916 | 38371 ft | 473 kts | 264° |
| 2026-04-22 12:16 | 53.40442 | -40.88751 | 38368 ft | 473 kts | 264° |
| 2026-04-22 12:17 | 53.39228 | -40.99570 | 38366 ft | 472 kts | 264° |
| 2026-04-22 12:17 | 53.38004 | -41.10379 | 38367 ft | 472 kts | 264° |
| 2026-04-22 12:18 | 53.36774 | -41.21155 | 38365 ft | 470 kts | 264° |
| 2026-04-22 12:18 | 53.35538 | -41.31896 | 38362 ft | 470 kts | 264° |
| 2026-04-22 12:19 | 53.34293 | -41.42631 | 38363 ft | 470 kts | 264° |
| 2026-04-22 12:19 | 53.33036 | -41.53371 | 38352 ft | 470 kts | 264° |
| 2026-04-22 12:20 | 53.31774 | -41.64060 | 38357 ft | 468 kts | 263° |
| 2026-04-22 12:20 | 53.30504 | -41.74738 | 38350 ft | 468 kts | 263° |
| 2026-04-22 12:21 | 53.29235 | -41.85323 | 38368 ft | 468 kts | 263° |
| 2026-04-22 12:21 | 53.27948 | -41.95979 | 38361 ft | 468 kts | 263° |
| 2026-04-22 12:22 | 53.26650 | -42.06630 | 38331 ft | 468 kts | 263° |
| 2026-04-22 12:22 | 53.25343 | -42.17271 | 38357 ft | 467 kts | 263° |
| 2026-04-22 12:23 | 53.24030 | -42.27873 | 38348 ft | 466 kts | 262° |
| 2026-04-22 12:23 | 53.22710 | -42.38459 | 38352 ft | 466 kts | 262° |
| 2026-04-22 12:24 | 53.21381 | -42.49035 | 38343 ft | 466 kts | 262° |
| 2026-04-22 12:24 | 53.20042 | -42.59606 | 38345 ft | 466 kts | 262° |
| 2026-04-22 12:25 | 53.18696 | -42.70153 | 38341 ft | 465 kts | 261° |
| 2026-04-22 12:25 | 53.17351 | -42.80608 | 38338 ft | 464 kts | 261° |
| 2026-04-22 12:26 | 53.15991 | -42.91106 | 38336 ft | 464 kts | 261° |
| 2026-04-22 12:26 | 53.14621 | -43.01612 | 38334 ft | 464 kts | 261° |
| 2026-04-22 12:27 | 53.13466 | -43.10403 | 38328 ft | 464 kts | 261° |
| 2026-04-22 12:27 | 53.12087 | -43.20828 | 38324 ft | 464 kts | 261° |
| 2026-04-22 12:28 | 53.10692 | -43.31296 | 38322 ft | 462 kts | 260° |
| 2026-04-22 12:28 | 53.09292 | -43.41724 | 38322 ft | 462 kts | 260° |
| 2026-04-22 12:29 | 53.07884 | -43.52144 | 38317 ft | 462 kts | 260° |
| 2026-04-22 12:29 | 53.06465 | -43.62571 | 38314 ft | 462 kts | 259° |
| 2026-04-22 12:30 | 53.04321 | -43.78182 | 38307 ft | 461 kts | 259° |
| 2026-04-22 12:31 | 53.02886 | -43.88543 | 38308 ft | 460 kts | 259° |
| 2026-04-22 12:31 | 53.01442 | -43.98892 | 38303 ft | 460 kts | 259° |
| 2026-04-22 12:32 | 52.99990 | -44.09230 | 38298 ft | 460 kts | 259° |
| 2026-04-22 12:32 | 52.97807 | -44.24647 | 38292 ft | 460 kts | 259° |
| 2026-04-22 12:33 | 52.96334 | -44.34955 | 38292 ft | 458 kts | 259° |
| 2026-04-22 12:33 | 52.94860 | -44.45202 | 38284 ft | 456 kts | 259° |
| 2026-04-22 12:34 | 52.93382 | -44.55409 | 38284 ft | 455 kts | 259° |
| 2026-04-22 12:34 | 52.91895 | -44.65619 | 38278 ft | 456 kts | 259° |
| 2026-04-22 12:35 | 52.90400 | -44.75811 | 38279 ft | 456 kts | 259° |
| 2026-04-22 12:35 | 52.88895 | -44.86009 | 38267 ft | 456 kts | 258° |
| 2026-04-22 12:36 | 52.87385 | -44.96166 | 38271 ft | 453 kts | 258° |
| 2026-04-22 12:36 | 52.85873 | -45.06274 | 38271 ft | 452 kts | 258° |
| 2026-04-22 12:37 | 52.84353 | -45.16377 | 38271 ft | 453 kts | 258° |
| 2026-04-22 12:37 | 52.82824 | -45.26477 | 38270 ft | 453 kts | 258° |
| 2026-04-22 12:38 | 52.81287 | -45.36557 | 38254 ft | 451 kts | 257° |
| 2026-04-22 12:38 | 52.79752 | -45.46570 | 38262 ft | 449 kts | 257° |
| 2026-04-22 12:39 | 52.77438 | -45.61544 | 38256 ft | 449 kts | 258° |
| 2026-04-22 12:40 | 52.75883 | -45.71528 | 38244 ft | 449 kts | 258° |
| 2026-04-22 12:40 | 52.74319 | -45.81506 | 38244 ft | 449 kts | 257° |
| 2026-04-22 12:41 | 52.72759 | -45.91409 | 38244 ft | 449 kts | 258° |
| 2026-04-22 12:41 | 52.71185 | -46.01337 | 38238 ft | 447 kts | 257° |
| 2026-04-22 12:42 | 52.69606 | -46.11233 | 38235 ft | 446 kts | 256° |
| 2026-04-22 12:42 | 52.68019 | -46.21121 | 38227 ft | 446 kts | 257° |
| 2026-04-22 12:43 | 52.66426 | -46.30989 | 38227 ft | 446 kts | 257° |
| 2026-04-22 12:43 | 52.64825 | -46.40850 | 38217 ft | 445 kts | 256° |
| 2026-04-22 12:44 | 52.63215 | -46.50703 | 38215 ft | 445 kts | 256° |
| 2026-04-22 12:44 | 52.61594 | -46.60572 | 38209 ft | 447 kts | 256° |
| 2026-04-22 12:45 | 52.59964 | -46.70435 | 38207 ft | 447 kts | 256° |
| 2026-04-22 12:45 | 52.58326 | -46.80290 | 38198 ft | 447 kts | 255° |
| 2026-04-22 12:46 | 52.56678 | -46.90151 | 38198 ft | 447 kts | 255° |
| 2026-04-22 12:46 | 52.55022 | -47.00002 | 38187 ft | 448 kts | 255° |
| 2026-04-22 12:47 | 52.53357 | -47.09853 | 38189 ft | 448 kts | 255° |
| 2026-04-22 12:47 | 52.51681 | -47.19710 | 38189 ft | 448 kts | 255° |
| 2026-04-22 12:48 | 52.49995 | -47.29570 | 38182 ft | 449 kts | 254° |
| 2026-04-22 12:48 | 52.48303 | -47.39412 | 38174 ft | 449 kts | 253° |
| 2026-04-22 12:49 | 52.46605 | -47.49234 | 38167 ft | 447 kts | 253° |
| 2026-04-22 12:49 | 52.44905 | -47.59019 | 38170 ft | 445 kts | 253° |
| 2026-04-22 12:50 | 52.43211 | -47.68704 | 38157 ft | 445 kts | 253° |
| 2026-04-22 12:50 | 52.41499 | -47.78447 | 38154 ft | 445 kts | 252° |
| 2026-04-22 12:51 | 52.39779 | -47.88182 | 38149 ft | 445 kts | 253° |
| 2026-04-22 12:51 | 52.38048 | -47.97919 | 38147 ft | 445 kts | 252° |
| 2026-04-22 12:52 | 52.36313 | -48.07627 | 38139 ft | 445 kts | 252° |
| 2026-04-22 12:52 | 52.34563 | -48.17357 | 38124 ft | 446 kts | 252° |
| 2026-04-22 12:53 | 52.32803 | -48.27101 | 38119 ft | 446 kts | 251° |
| 2026-04-22 12:53 | 52.31039 | -48.36824 | 38132 ft | 447 kts | 250° |
| 2026-04-22 12:54 | 52.29263 | -48.46553 | 38117 ft | 448 kts | 251° |
| 2026-04-22 12:54 | 52.27475 | -48.56304 | 38112 ft | 448 kts | 251° |
| 2026-04-22 12:55 | 52.25681 | -48.66040 | 38112 ft | 448 kts | 250° |
| 2026-04-22 12:55 | 52.23877 | -48.75770 | 38103 ft | 448 kts | 250° |
| 2026-04-22 12:56 | 52.22066 | -48.85480 | 38103 ft | 448 kts | 250° |
| 2026-04-22 12:56 | 52.20260 | -48.95117 | 38097 ft | 447 kts | 250° |
| 2026-04-22 12:57 | 52.18433 | -49.04816 | 38091 ft | 447 kts | 250° |
| 2026-04-22 12:57 | 52.16601 | -49.14495 | 38087 ft | 446 kts | 250° |
| 2026-04-22 12:58 | 52.14774 | -49.24105 | 38086 ft | 443 kts | 249° |
| 2026-04-22 12:58 | 52.12940 | -49.33693 | 38078 ft | 443 kts | 249° |
| 2026-04-22 12:59 | 52.11100 | -49.43265 | 38075 ft | 443 kts | 249° |
| 2026-04-22 12:59 | 52.09256 | -49.52808 | 38073 ft | 442 kts | 249° |
| 2026-04-22 13:00 | 52.07404 | -49.62348 | 38087 ft | 442 kts | 248° |
| 2026-04-22 13:00 | 52.05547 | -49.71863 | 38062 ft | 441 kts | 248° |
| 2026-04-22 13:01 | 52.03684 | -49.81364 | 38063 ft | 441 kts | 248° |
| 2026-04-22 13:01 | 52.01814 | -49.90851 | 38068 ft | 441 kts | 248° |
| 2026-04-22 13:02 | 51.99937 | -50.00334 | 38058 ft | 441 kts | 248° |
| 2026-04-22 13:02 | 51.97850 | -50.09651 | 38058 ft | 439 kts | 244° |
| 2026-04-22 13:03 | 51.95555 | -50.18809 | 38054 ft | 437 kts | 243° |
| 2026-04-22 13:03 | 51.93287 | -50.27912 | 38044 ft | 436 kts | 243° |
| 2026-04-22 13:04 | 51.91050 | -50.37038 | 38081 ft | 436 kts | 243° |
| 2026-04-22 13:04 | 51.88839 | -50.46100 | 38049 ft | 435 kts | 243° |
| 2026-04-22 13:05 | 51.86613 | -50.55196 | 38045 ft | 435 kts | 243° |
| 2026-04-22 13:05 | 51.84376 | -50.64291 | 38046 ft | 435 kts | 243° |
| 2026-04-22 13:06 | 51.82134 | -50.73364 | 38040 ft | 435 kts | 243° |
| 2026-04-22 13:06 | 51.79882 | -50.82441 | 38039 ft | 435 kts | 243° |
| 2026-04-22 13:07 | 51.77625 | -50.91496 | 38034 ft | 435 kts | 243° |
| 2026-04-22 13:07 | 51.75360 | -51.00552 | 38038 ft | 435 kts | 243° |
| 2026-04-22 13:08 | 51.73091 | -51.09583 | 38035 ft | 434 kts | 242° |
| 2026-04-22 13:08 | 51.70822 | -51.18584 | 38031 ft | 433 kts | 242° |
| 2026-04-22 13:09 | 51.68549 | -51.27558 | 38029 ft | 432 kts | 242° |
| 2026-04-22 13:09 | 51.66269 | -51.36521 | 38030 ft | 432 kts | 242° |
| 2026-04-22 13:10 | 51.63982 | -51.45482 | 38043 ft | 432 kts | 242° |
| 2026-04-22 13:10 | 51.61693 | -51.54413 | 38045 ft | 432 kts | 241° |
| 2026-04-22 13:11 | 51.59407 | -51.63295 | 38027 ft | 433 kts | 241° |
| 2026-04-22 13:11 | 51.57099 | -51.72229 | 38028 ft | 433 kts | 241° |
| 2026-04-22 13:12 | 51.54784 | -51.81158 | 38029 ft | 433 kts | 241° |
| 2026-04-22 13:12 | 51.52462 | -51.90077 | 38034 ft | 433 kts | 241° |
| 2026-04-22 13:13 | 51.50134 | -51.98983 | 38055 ft | 433 kts | 240° |
| 2026-04-22 13:13 | 51.47796 | -52.07890 | 38028 ft | 434 kts | 240° |
| 2026-04-22 13:14 | 51.45445 | -52.16812 | 38046 ft | 434 kts | 240° |
| 2026-04-22 13:14 | 51.43088 | -52.25727 | 38044 ft | 434 kts | 240° |
| 2026-04-22 13:15 | 51.40739 | -52.34577 | 38040 ft | 434 kts | 240° |
| 2026-04-22 13:15 | 51.38368 | -52.43473 | 38039 ft | 434 kts | 240° |
| 2026-04-22 13:16 | 51.35991 | -52.52357 | 38055 ft | 435 kts | 239° |
| 2026-04-22 13:16 | 51.33601 | -52.61252 | 38047 ft | 435 kts | 239° |
| 2026-04-22 13:17 | 51.31204 | -52.70145 | 38058 ft | 435 kts | 239° |
| 2026-04-22 13:17 | 51.28804 | -52.79012 | 38059 ft | 435 kts | 239° |
| 2026-04-22 13:18 | 51.26393 | -52.87886 | 38058 ft | 435 kts | 239° |
| 2026-04-22 13:18 | 51.23982 | -52.96728 | 38056 ft | 434 kts | 238° |
| 2026-04-22 13:19 | 51.21575 | -53.05524 | 38056 ft | 432 kts | 238° |
| 2026-04-22 13:19 | 51.19572 | -53.12811 | 38072 ft | 432 kts | 238° |
| 2026-04-22 13:20 | 51.17155 | -53.21576 | 38072 ft | 432 kts | 238° |
| 2026-04-22 13:20 | 51.14675 | -53.30276 | 38075 ft | 430 kts | 237° |
| 2026-04-22 13:21 | 51.12067 | -53.38825 | 38085 ft | 429 kts | 236° |
| 2026-04-22 13:21 | 51.09459 | -53.47336 | 38074 ft | 427 kts | 236° |
| 2026-04-22 13:22 | 51.06870 | -53.55834 | 38097 ft | 427 kts | 236° |
| 2026-04-22 13:22 | 51.04281 | -53.64342 | 38089 ft | 428 kts | 236° |
| 2026-04-22 13:23 | 51.01703 | -53.72800 | 38088 ft | 428 kts | 236° |
| 2026-04-22 13:23 | 50.99102 | -53.81302 | 38107 ft | 428 kts | 235° |
| 2026-04-22 13:24 | 50.96488 | -53.89808 | 38089 ft | 429 kts | 235° |
| 2026-04-22 13:24 | 50.93863 | -53.98323 | 38110 ft | 430 kts | 235° |
| 2026-04-22 13:25 | 50.91231 | -54.06833 | 38108 ft | 430 kts | 235° |
| 2026-04-22 13:25 | 50.88597 | -54.15321 | 38109 ft | 429 kts | 235° |
| 2026-04-22 13:26 | 50.85957 | -54.23798 | 38128 ft | 430 kts | 234° |
| 2026-04-22 13:26 | 50.83298 | -54.32295 | 38114 ft | 431 kts | 234° |
| 2026-04-22 13:27 | 50.80633 | -54.40791 | 38127 ft | 432 kts | 234° |
| 2026-04-22 13:27 | 50.77959 | -54.49291 | 38125 ft | 431 kts | 234° |
| 2026-04-22 13:28 | 50.75281 | -54.57773 | 38128 ft | 431 kts | 234° |
| 2026-04-22 13:28 | 50.72597 | -54.66243 | 38147 ft | 432 kts | 234° |
| 2026-04-22 13:29 | 50.69899 | -54.74722 | 38132 ft | 434 kts | 234° |
| 2026-04-22 13:29 | 50.67185 | -54.83224 | 38142 ft | 434 kts | 234° |
| 2026-04-22 13:30 | 50.64486 | -54.91660 | 38143 ft | 434 kts | 234° |
| 2026-04-22 13:30 | 50.61763 | -55.00135 | 38145 ft | 434 kts | 234° |
| 2026-04-22 13:31 | 50.59034 | -55.08602 | 38143 ft | 433 kts | 234° |
| 2026-04-22 13:31 | 50.56302 | -55.17047 | 38150 ft | 433 kts | 233° |
| 2026-04-22 13:32 | 50.53561 | -55.25491 | 38151 ft | 433 kts | 233° |
| 2026-04-22 13:32 | 50.50815 | -55.33921 | 38152 ft | 433 kts | 233° |
| 2026-04-22 13:33 | 50.48063 | -55.42343 | 38151 ft | 433 kts | 233° |
| 2026-04-22 13:33 | 50.45308 | -55.50746 | 38161 ft | 434 kts | 233° |
| 2026-04-22 13:34 | 50.42536 | -55.59168 | 38157 ft | 435 kts | 233° |
| 2026-04-22 13:34 | 50.39756 | -55.67589 | 38176 ft | 435 kts | 233° |
| 2026-04-22 13:35 | 50.36988 | -55.75951 | 38170 ft | 435 kts | 233° |
| 2026-04-22 13:35 | 50.34193 | -55.84362 | 38170 ft | 435 kts | 233° |
| 2026-04-22 13:36 | 50.31395 | -55.92753 | 38173 ft | 435 kts | 233° |
| 2026-04-22 13:36 | 50.28583 | -56.01158 | 38173 ft | 436 kts | 233° |
| 2026-04-22 13:37 | 50.25767 | -56.09549 | 38181 ft | 436 kts | 233° |
| 2026-04-22 13:37 | 50.22942 | -56.17938 | 38180 ft | 436 kts | 233° |
| 2026-04-22 13:38 | 50.20114 | -56.26309 | 38184 ft | 436 kts | 233° |
| 2026-04-22 13:38 | 50.15859 | -56.38846 | 38181 ft | 436 kts | 233° |
| 2026-04-22 13:39 | 50.13012 | -56.47203 | 38190 ft | 436 kts | 233° |
| 2026-04-22 13:39 | 50.10163 | -56.55541 | 38185 ft | 436 kts | 233° |
| 2026-04-22 13:40 | 50.07309 | -56.63861 | 38180 ft | 436 kts | 233° |
| 2026-04-22 13:40 | 50.04464 | -56.72128 | 38220 ft | 436 kts | 233° |
| 2026-04-22 13:41 | 50.01593 | -56.80448 | 38182 ft | 437 kts | 233° |
| 2026-04-22 13:41 | 49.98710 | -56.88770 | 38184 ft | 437 kts | 233° |
| 2026-04-22 13:42 | 49.95822 | -56.97085 | 38184 ft | 437 kts | 233° |
| 2026-04-22 13:42 | 49.92940 | -57.05359 | 38181 ft | 433 kts | 233° |
| 2026-04-22 13:43 | 49.90085 | -57.13537 | 38173 ft | 430 kts | 233° |
| 2026-04-22 13:43 | 49.87223 | -57.21681 | 38179 ft | 431 kts | 233° |
| 2026-04-22 13:44 | 49.84372 | -57.29775 | 38175 ft | 431 kts | 233° |
| 2026-04-22 13:44 | 49.81499 | -57.37912 | 38172 ft | 431 kts | 233° |
| 2026-04-22 13:45 | 49.78620 | -57.46044 | 38167 ft | 430 kts | 233° |
| 2026-04-22 13:45 | 49.75733 | -57.54166 | 38174 ft | 431 kts | 233° |
| 2026-04-22 13:46 | 49.72830 | -57.62304 | 38172 ft | 433 kts | 233° |
| 2026-04-22 13:46 | 49.69923 | -57.70437 | 38189 ft | 432 kts | 233° |
| 2026-04-22 13:47 | 49.67014 | -57.78555 | 38175 ft | 431 kts | 233° |
| 2026-04-22 13:47 | 49.64103 | -57.86640 | 38177 ft | 431 kts | 233° |
| 2026-04-22 13:48 | 49.61189 | -57.94718 | 38180 ft | 430 kts | 233° |
| 2026-04-22 13:48 | 49.58284 | -58.02748 | 38183 ft | 429 kts | 233° |
| 2026-04-22 13:49 | 49.55370 | -58.10770 | 38177 ft | 429 kts | 233° |
| 2026-04-22 13:49 | 49.52454 | -58.18776 | 38178 ft | 429 kts | 232° |
| 2026-04-22 13:50 | 49.49532 | -58.26770 | 38175 ft | 429 kts | 232° |
| 2026-04-22 13:50 | 49.46597 | -58.34774 | 38176 ft | 430 kts | 232° |
| 2026-04-22 13:51 | 49.43650 | -58.42783 | 38173 ft | 431 kts | 232° |
| 2026-04-22 13:51 | 49.40699 | -58.50787 | 38173 ft | 431 kts | 232° |
| 2026-04-22 13:52 | 49.37743 | -58.58780 | 38173 ft | 431 kts | 232° |
| 2026-04-22 13:52 | 49.34796 | -58.66719 | 38203 ft | 431 kts | 232° |
| 2026-04-22 13:53 | 49.31816 | -58.74719 | 38175 ft | 434 kts | 233° |
| 2026-04-22 13:53 | 49.28810 | -58.82770 | 38171 ft | 436 kts | 233° |
| 2026-04-22 13:54 | 49.25796 | -58.90822 | 38174 ft | 436 kts | 232° |
| 2026-04-22 13:54 | 49.22781 | -58.98854 | 38176 ft | 435 kts | 232° |
| 2026-04-22 13:55 | 49.19757 | -59.06879 | 38175 ft | 435 kts | 232° |
| 2026-04-22 13:55 | 49.16728 | -59.14891 | 38174 ft | 435 kts | 232° |
| 2026-04-22 13:56 | 49.13694 | -59.22895 | 38183 ft | 435 kts | 232° |
| 2026-04-22 13:56 | 49.10657 | -59.30879 | 38186 ft | 435 kts | 232° |
| 2026-04-22 13:57 | 49.07612 | -59.38862 | 38183 ft | 435 kts | 232° |
| 2026-04-22 13:57 | 49.04559 | -59.46840 | 38190 ft | 436 kts | 232° |
| 2026-04-22 13:58 | 49.01511 | -59.54779 | 38184 ft | 438 kts | 232° |
| 2026-04-22 13:58 | 48.98434 | -59.62774 | 38205 ft | 438 kts | 233° |
| 2026-04-22 13:59 | 48.95339 | -59.70790 | 38193 ft | 440 kts | 232° |
| 2026-04-22 13:59 | 48.92234 | -59.78809 | 38193 ft | 440 kts | 232° |
| 2026-04-22 14:00 | 48.89121 | -59.86824 | 38193 ft | 441 kts | 233° |
| 2026-04-22 14:00 | 48.85997 | -59.94841 | 38191 ft | 441 kts | 233° |
| 2026-04-22 14:01 | 48.82863 | -60.02863 | 38200 ft | 441 kts | 233° |
| 2026-04-22 14:01 | 48.79727 | -60.10865 | 38199 ft | 441 kts | 233° |
| 2026-04-22 14:02 | 48.76584 | -60.18859 | 38213 ft | 442 kts | 233° |
| 2026-04-22 14:02 | 48.73429 | -60.26856 | 38201 ft | 442 kts | 233° |
| 2026-04-22 14:03 | 48.70267 | -60.34851 | 38209 ft | 443 kts | 233° |
| 2026-04-22 14:03 | 48.67101 | -60.42834 | 38209 ft | 442 kts | 233° |
| 2026-04-22 14:04 | 48.63929 | -60.50806 | 38211 ft | 442 kts | 233° |
| 2026-04-22 14:04 | 48.60746 | -60.58780 | 38211 ft | 444 kts | 233° |
| 2026-04-22 14:05 | 48.57545 | -60.66772 | 38211 ft | 445 kts | 233° |
| 2026-04-22 14:06 | 48.52752 | -60.78702 | 38219 ft | 445 kts | 233° |
| 2026-04-22 14:06 | 48.49536 | -60.86678 | 38217 ft | 445 kts | 233° |
| 2026-04-22 14:07 | 48.46317 | -60.94636 | 38222 ft | 445 kts | 233° |
| 2026-04-22 14:07 | 48.43085 | -61.02601 | 38222 ft | 445 kts | 233° |
| 2026-04-22 14:08 | 48.39848 | -61.10557 | 38227 ft | 446 kts | 233° |
| 2026-04-22 14:08 | 48.36608 | -61.18495 | 38227 ft | 445 kts | 233° |
| 2026-04-22 14:09 | 48.33360 | -61.26430 | 38242 ft | 446 kts | 234° |
| 2026-04-22 14:09 | 48.30101 | -61.34367 | 38231 ft | 446 kts | 234° |
| 2026-04-22 14:10 | 48.26859 | -61.42241 | 38251 ft | 447 kts | 233° |
| 2026-04-22 14:10 | 48.23582 | -61.50176 | 38233 ft | 447 kts | 234° |
| 2026-04-22 14:11 | 48.20296 | -61.58110 | 38239 ft | 448 kts | 234° |
| 2026-04-22 14:11 | 48.17006 | -61.66028 | 38251 ft | 448 kts | 234° |
| 2026-04-22 14:12 | 48.13706 | -61.73949 | 38233 ft | 448 kts | 234° |
| 2026-04-22 14:12 | 48.10401 | -61.81861 | 38239 ft | 448 kts | 234° |
| 2026-04-22 14:13 | 48.07093 | -61.89753 | 38261 ft | 448 kts | 234° |
| 2026-04-22 14:13 | 48.03777 | -61.97644 | 38251 ft | 448 kts | 234° |
| 2026-04-22 14:14 | 48.01018 | -62.04191 | 38246 ft | 448 kts | 234° |
| 2026-04-22 14:14 | 47.97689 | -62.12069 | 38246 ft | 448 kts | 234° |
| 2026-04-22 14:15 | 47.94355 | -62.19936 | 38254 ft | 448 kts | 234° |
| 2026-04-22 14:15 | 47.91019 | -62.27786 | 38254 ft | 448 kts | 234° |
| 2026-04-22 14:16 | 47.87673 | -62.35634 | 38261 ft | 449 kts | 234° |
| 2026-04-22 14:16 | 47.84316 | -62.43486 | 38257 ft | 450 kts | 234° |
| 2026-04-22 14:17 | 47.80951 | -62.51337 | 38260 ft | 450 kts | 234° |
| 2026-04-22 14:17 | 47.77599 | -62.59134 | 38262 ft | 450 kts | 234° |
| 2026-04-22 14:18 | 47.74222 | -62.66965 | 38262 ft | 450 kts | 234° |
| 2026-04-22 14:18 | 47.70840 | -62.74787 | 38265 ft | 450 kts | 234° |
| 2026-04-22 14:19 | 47.67454 | -62.82595 | 38268 ft | 450 kts | 234° |
| 2026-04-22 14:19 | 47.64059 | -62.90403 | 38270 ft | 450 kts | 234° |
| 2026-04-22 14:20 | 47.58962 | -63.02078 | 38272 ft | 450 kts | 234° |
| 2026-04-22 14:20 | 47.55555 | -63.09857 | 38274 ft | 450 kts | 234° |
| 2026-04-22 14:21 | 47.50434 | -63.21508 | 38279 ft | 451 kts | 234° |
| 2026-04-22 14:22 | 47.45294 | -63.33153 | 38284 ft | 451 kts | 234° |
| 2026-04-22 14:23 | 47.40143 | -63.44772 | 38287 ft | 450 kts | 234° |
| 2026-04-22 14:23 | 47.36705 | -63.52502 | 38295 ft | 450 kts | 234° |
| 2026-04-22 14:24 | 47.33263 | -63.60215 | 38295 ft | 450 kts | 234° |
| 2026-04-22 14:24 | 47.29816 | -63.67921 | 38300 ft | 450 kts | 234° |
| 2026-04-22 14:25 | 47.26361 | -63.75620 | 38298 ft | 451 kts | 234° |
| 2026-04-22 14:25 | 47.22900 | -63.83314 | 38298 ft | 451 kts | 234° |
| 2026-04-22 14:26 | 47.19456 | -63.90949 | 38298 ft | 451 kts | 234° |
| 2026-04-22 14:26 | 47.15987 | -63.98617 | 38295 ft | 451 kts | 234° |
| 2026-04-22 14:27 | 47.12509 | -64.06282 | 38279 ft | 451 kts | 234° |
| 2026-04-22 14:27 | 47.09022 | -64.13946 | 38279 ft | 451 kts | 234° |
| 2026-04-22 14:28 | 47.05528 | -64.21605 | 38279 ft | 452 kts | 234° |
| 2026-04-22 14:28 | 47.02033 | -64.29247 | 38276 ft | 452 kts | 234° |
| 2026-04-22 14:29 | 46.98528 | -64.36886 | 38276 ft | 451 kts | 234° |
| 2026-04-22 14:29 | 46.95019 | -64.44514 | 38279 ft | 451 kts | 234° |
| 2026-04-22 14:30 | 46.91511 | -64.52120 | 38279 ft | 451 kts | 234° |
| 2026-04-22 14:30 | 46.87993 | -64.59726 | 38276 ft | 451 kts | 234° |
| 2026-04-22 14:31 | 46.84475 | -64.67313 | 38276 ft | 451 kts | 235° |
| 2026-04-22 14:31 | 46.80954 | -64.74885 | 38277 ft | 450 kts | 235° |
| 2026-04-22 14:32 | 46.77432 | -64.82437 | 38280 ft | 450 kts | 235° |
| 2026-04-22 14:32 | 46.73922 | -64.89943 | 38279 ft | 451 kts | 235° |
| 2026-04-22 14:33 | 46.70385 | -64.97485 | 38278 ft | 451 kts | 235° |
| 2026-04-22 14:33 | 46.66839 | -65.05026 | 38279 ft | 451 kts | 235° |
| 2026-04-22 14:34 | 46.63292 | -65.12551 | 38279 ft | 451 kts | 235° |
| 2026-04-22 14:34 | 46.59737 | -65.20073 | 38279 ft | 451 kts | 235° |
| 2026-04-22 14:35 | 46.56175 | -65.27589 | 38276 ft | 451 kts | 235° |
| 2026-04-22 14:35 | 46.52614 | -65.35082 | 38270 ft | 450 kts | 235° |
| 2026-04-22 14:36 | 46.49050 | -65.42561 | 38271 ft | 450 kts | 235° |
| 2026-04-22 14:36 | 46.45481 | -65.50030 | 38268 ft | 450 kts | 235° |
| 2026-04-22 14:37 | 46.41933 | -65.57437 | 38268 ft | 450 kts | 235° |
| 2026-04-22 14:37 | 46.38357 | -65.64881 | 38265 ft | 450 kts | 236° |
| 2026-04-22 14:38 | 46.34783 | -65.72301 | 38266 ft | 449 kts | 236° |
| 2026-04-22 14:38 | 46.31205 | -65.79713 | 38266 ft | 449 kts | 236° |
| 2026-04-22 14:39 | 46.27624 | -65.87107 | 38263 ft | 449 kts | 236° |
| 2026-04-22 14:39 | 46.24034 | -65.94504 | 38264 ft | 449 kts | 235° |
| 2026-04-22 14:40 | 46.18643 | -66.05572 | 38262 ft | 449 kts | 235° |
| 2026-04-22 14:40 | 46.15046 | -66.12933 | 38263 ft | 449 kts | 235° |
| 2026-04-22 14:41 | 46.11464 | -66.20245 | 38251 ft | 449 kts | 235° |
| 2026-04-22 14:41 | 46.07854 | -66.27595 | 38260 ft | 449 kts | 235° |
| 2026-04-22 14:42 | 46.04236 | -66.34941 | 38258 ft | 450 kts | 235° |
| 2026-04-22 14:42 | 46.00615 | -66.42275 | 38258 ft | 450 kts | 236° |
| 2026-04-22 14:43 | 45.96978 | -66.49621 | 38257 ft | 451 kts | 236° |
| 2026-04-22 14:43 | 45.93332 | -66.56965 | 38260 ft | 451 kts | 236° |
| 2026-04-22 14:44 | 45.89687 | -66.64290 | 38260 ft | 451 kts | 236° |
| 2026-04-22 14:44 | 45.86040 | -66.71600 | 38260 ft | 451 kts | 236° |
| 2026-04-22 14:45 | 45.82383 | -66.78911 | 38260 ft | 451 kts | 236° |
| 2026-04-22 14:45 | 45.78747 | -66.86161 | 38257 ft | 450 kts | 236° |
| 2026-04-22 14:46 | 45.75089 | -66.93435 | 38257 ft | 450 kts | 236° |
| 2026-04-22 14:46 | 45.71425 | -67.00703 | 38257 ft | 450 kts | 236° |
| 2026-04-22 14:47 | 45.67756 | -67.07962 | 38258 ft | 450 kts | 236° |
| 2026-04-22 14:47 | 45.64084 | -67.15206 | 38256 ft | 450 kts | 237° |
| 2026-04-22 14:48 | 45.60416 | -67.22426 | 38259 ft | 449 kts | 237° |
| 2026-04-22 14:48 | 45.56743 | -67.29641 | 38257 ft | 449 kts | 237° |
| 2026-04-22 14:49 | 45.53069 | -67.36838 | 38260 ft | 449 kts | 236° |
| 2026-04-22 14:49 | 45.49388 | -67.44028 | 38263 ft | 449 kts | 237° |
| 2026-04-22 14:50 | 45.45702 | -67.51211 | 38260 ft | 448 kts | 237° |
| 2026-04-22 14:50 | 45.42021 | -67.58366 | 38260 ft | 448 kts | 237° |
| 2026-04-22 14:51 | 45.38331 | -67.65521 | 38260 ft | 448 kts | 237° |
| 2026-04-22 14:51 | 45.34650 | -67.72609 | 38258 ft | 449 kts | 235° |
| 2026-04-22 14:52 | 45.30581 | -67.79361 | 38262 ft | 450 kts | 232° |
| 2026-04-22 14:52 | 45.26409 | -67.86008 | 38259 ft | 451 kts | 231° |
| 2026-04-22 14:53 | 45.22217 | -67.92628 | 38261 ft | 451 kts | 232° |
| 2026-04-22 14:53 | 45.18027 | -67.99242 | 38261 ft | 451 kts | 232° |
| 2026-04-22 14:54 | 45.13831 | -68.05861 | 38262 ft | 451 kts | 232° |
| 2026-04-22 14:54 | 45.09663 | -68.12423 | 38260 ft | 451 kts | 232° |
| 2026-04-22 14:55 | 45.05462 | -68.19022 | 38264 ft | 451 kts | 232° |
| 2026-04-22 14:55 | 45.01257 | -68.25612 | 38258 ft | 451 kts | 232° |
| 2026-04-22 14:56 | 44.97052 | -68.32186 | 38258 ft | 451 kts | 232° |
| 2026-04-22 14:56 | 44.92839 | -68.38756 | 38256 ft | 451 kts | 232° |
| 2026-04-22 14:57 | 44.88621 | -68.45318 | 38241 ft | 451 kts | 232° |
| 2026-04-22 14:57 | 44.84408 | -68.51857 | 38247 ft | 451 kts | 232° |
| 2026-04-22 14:58 | 44.80191 | -68.58389 | 38245 ft | 451 kts | 232° |
| 2026-04-22 14:58 | 44.75970 | -68.64910 | 38242 ft | 451 kts | 232° |
| 2026-04-22 14:59 | 44.71772 | -68.71382 | 38239 ft | 451 kts | 233° |
| 2026-04-22 14:59 | 44.67549 | -68.77874 | 38242 ft | 450 kts | 232° |
| 2026-04-22 15:00 | 44.63326 | -68.84353 | 38242 ft | 449 kts | 232° |
| 2026-04-22 15:00 | 44.59104 | -68.90817 | 38239 ft | 449 kts | 232° |
| 2026-04-22 15:01 | 44.55178 | -68.97567 | 38235 ft | 444 kts | 239° |
| 2026-04-22 15:01 | 44.51550 | -69.04560 | 38237 ft | 444 kts | 239° |
| 2026-04-22 15:02 | 44.47939 | -69.11568 | 38235 ft | 443 kts | 239° |
| 2026-04-22 15:02 | 44.44334 | -69.18564 | 38226 ft | 444 kts | 239° |
| 2026-04-22 15:03 | 44.40721 | -69.25563 | 38224 ft | 443 kts | 239° |
| 2026-04-22 15:03 | 44.37114 | -69.32537 | 38225 ft | 442 kts | 239° |
| 2026-04-22 15:04 | 44.33530 | -69.39452 | 38215 ft | 442 kts | 239° |
| 2026-04-22 15:04 | 44.29916 | -69.46404 | 38218 ft | 442 kts | 239° |
| 2026-04-22 15:05 | 44.26297 | -69.53354 | 38232 ft | 442 kts | 239° |
| 2026-04-22 15:05 | 44.22680 | -69.60280 | 38235 ft | 442 kts | 239° |
| 2026-04-22 15:06 | 44.19056 | -69.67204 | 38240 ft | 442 kts | 239° |
| 2026-04-22 15:06 | 44.15427 | -69.74122 | 38251 ft | 442 kts | 239° |
| 2026-04-22 15:07 | 44.11798 | -69.81022 | 38246 ft | 442 kts | 239° |
| 2026-04-22 15:07 | 44.08166 | -69.87913 | 38251 ft | 441 kts | 239° |
| 2026-04-22 15:08 | 44.04529 | -69.94795 | 38251 ft | 441 kts | 239° |
| 2026-04-22 15:08 | 44.00888 | -70.01670 | 38253 ft | 442 kts | 239° |
| 2026-04-22 15:09 | 43.97248 | -70.08527 | 38248 ft | 441 kts | 239° |
| 2026-04-22 15:09 | 43.93607 | -70.15369 | 38220 ft | 440 kts | 239° |
| 2026-04-22 15:10 | 43.89975 | -70.22176 | 38205 ft | 438 kts | 239° |
| 2026-04-22 15:10 | 43.86369 | -70.28922 | 38225 ft | 438 kts | 239° |
| 2026-04-22 15:11 | 43.82740 | -70.35695 | 38229 ft | 437 kts | 239° |
| 2026-04-22 15:11 | 43.79115 | -70.42444 | 38225 ft | 436 kts | 239° |
| 2026-04-22 15:12 | 43.76078 | -70.48087 | 38222 ft | 436 kts | 239° |
| 2026-04-22 15:12 | 43.72450 | -70.54813 | 38221 ft | 436 kts | 239° |
| 2026-04-22 15:13 | 43.68818 | -70.61532 | 38222 ft | 436 kts | 239° |
| 2026-04-22 15:13 | 43.65210 | -70.68190 | 38224 ft | 436 kts | 239° |
| 2026-04-22 15:14 | 43.61576 | -70.74881 | 38220 ft | 436 kts | 239° |
| 2026-04-22 15:14 | 43.57936 | -70.81568 | 38214 ft | 436 kts | 239° |
| 2026-04-22 15:15 | 43.54292 | -70.88248 | 38208 ft | 435 kts | 239° |
| 2026-04-22 15:15 | 43.50650 | -70.94907 | 38213 ft | 435 kts | 239° |
| 2026-04-22 15:16 | 43.47007 | -71.01554 | 38207 ft | 435 kts | 239° |
| 2026-04-22 15:16 | 43.43366 | -71.08184 | 38214 ft | 435 kts | 239° |
| 2026-04-22 15:17 | 43.39713 | -71.14818 | 38209 ft | 435 kts | 239° |
| 2026-04-22 15:17 | 43.36067 | -71.21426 | 38207 ft | 434 kts | 239° |
| 2026-04-22 15:18 | 43.32419 | -71.28022 | 38209 ft | 434 kts | 239° |
| 2026-04-22 15:18 | 43.28765 | -71.34616 | 38212 ft | 434 kts | 239° |
| 2026-04-22 15:19 | 43.25133 | -71.41155 | 38211 ft | 434 kts | 239° |
| 2026-04-22 15:19 | 43.21475 | -71.47725 | 38211 ft | 434 kts | 239° |
| 2026-04-22 15:20 | 43.17810 | -71.54294 | 38210 ft | 434 kts | 239° |
| 2026-04-22 15:20 | 43.14141 | -71.60855 | 38210 ft | 434 kts | 239° |
| 2026-04-22 15:21 | 43.10463 | -71.67417 | 38207 ft | 434 kts | 239° |
| 2026-04-22 15:21 | 43.06784 | -71.73967 | 38205 ft | 434 kts | 239° |
| 2026-04-22 15:22 | 43.03098 | -71.80514 | 38210 ft | 434 kts | 239° |
| 2026-04-22 15:22 | 42.99409 | -71.87053 | 38206 ft | 434 kts | 239° |
| 2026-04-22 15:23 | 42.95719 | -71.93579 | 38196 ft | 435 kts | 239° |
| 2026-04-22 15:23 | 42.92014 | -72.00116 | 38203 ft | 435 kts | 239° |
| 2026-04-22 15:24 | 42.88306 | -72.06645 | 38183 ft | 436 kts | 239° |
| 2026-04-22 15:24 | 42.84588 | -72.13174 | 38188 ft | 436 kts | 239° |
| 2026-04-22 15:25 | 42.80874 | -72.19684 | 37890 ft | 433 kts | 239° |
| 2026-04-22 15:25 | 42.79024 | -72.22922 | 37328 ft | 433 kts | 239° |
| 2026-04-22 15:25 | 42.77175 | -72.26155 | 36802 ft | 432 kts | 239° |
| 2026-04-22 15:26 | 42.75334 | -72.29370 | 36324 ft | 431 kts | 239° |
| 2026-04-22 15:26 | 42.73493 | -72.32580 | 35820 ft | 429 kts | 239° |
| 2026-04-22 15:26 | 42.71682 | -72.35734 | 35368 ft | 428 kts | 239° |
| 2026-04-22 15:26 | 42.69853 | -72.38919 | 34882 ft | 426 kts | 239° |
| 2026-04-22 15:27 | 42.68035 | -72.42080 | 34418 ft | 424 kts | 240° |
| 2026-04-22 15:27 | 42.66220 | -72.45232 | 33887 ft | 422 kts | 240° |
| 2026-04-22 15:27 | 42.64409 | -72.48377 | 33231 ft | 423 kts | 240° |
| 2026-04-22 15:27 | 42.62593 | -72.51527 | 32506 ft | 424 kts | 240° |
| 2026-04-22 15:28 | 42.60770 | -72.54687 | 31793 ft | 426 kts | 240° |
| 2026-04-22 15:28 | 42.58940 | -72.57851 | 31186 ft | 426 kts | 239° |
| 2026-04-22 15:28 | 42.57115 | -72.61003 | 30628 ft | 424 kts | 239° |
| 2026-04-22 15:28 | 42.55305 | -72.64123 | 30280 ft | 420 kts | 239° |
| 2026-04-22 15:29 | 42.51682 | -72.70372 | 30186 ft | 422 kts | 239° |
| 2026-04-22 15:29 | 42.49867 | -72.73493 | 29917 ft | 420 kts | 239° |
| 2026-04-22 15:30 | 42.46265 | -72.79677 | 28674 ft | 416 kts | 239° |
| 2026-04-22 15:30 | 42.44475 | -72.82747 | 28119 ft | 414 kts | 239° |
| 2026-04-22 15:30 | 42.42700 | -72.85787 | 27645 ft | 410 kts | 239° |
| 2026-04-22 15:30 | 42.40941 | -72.88798 | 27149 ft | 406 kts | 239° |
| 2026-04-22 15:31 | 42.39196 | -72.91781 | 26649 ft | 403 kts | 239° |
| 2026-04-22 15:31 | 42.37464 | -72.94739 | 26148 ft | 400 kts | 239° |
| 2026-04-22 15:31 | 42.35746 | -72.97672 | 25620 ft | 397 kts | 238° |
| 2026-04-22 15:31 | 42.34031 | -73.00598 | 25059 ft | 396 kts | 238° |
| 2026-04-22 15:32 | 42.32323 | -73.03509 | 24563 ft | 394 kts | 238° |
| 2026-04-22 15:32 | 42.30648 | -73.06358 | 24091 ft | 391 kts | 238° |
| 2026-04-22 15:32 | 42.28962 | -73.09225 | 23627 ft | 388 kts | 238° |
| 2026-04-22 15:32 | 42.27267 | -73.12104 | 23079 ft | 386 kts | 238° |
| 2026-04-22 15:33 | 42.25598 | -73.14935 | 22539 ft | 383 kts | 237° |
| 2026-04-22 15:33 | 42.23941 | -73.17744 | 22004 ft | 381 kts | 237° |
| 2026-04-22 15:33 | 42.22297 | -73.20529 | 21481 ft | 379 kts | 237° |
| 2026-04-22 15:33 | 42.20677 | -73.23269 | 20973 ft | 377 kts | 237° |
| 2026-04-22 15:34 | 42.19045 | -73.26029 | 20447 ft | 375 kts | 237° |
| 2026-04-22 15:34 | 42.17429 | -73.28757 | 20190 ft | 371 kts | 237° |
| 2026-04-22 15:34 | 42.15815 | -73.31482 | 20148 ft | 373 kts | 237° |
| 2026-04-22 15:34 | 42.14195 | -73.34218 | 20038 ft | 373 kts | 237° |
| 2026-04-22 15:35 | 42.13121 | -73.36028 | 19886 ft | 372 kts | 237° |
| 2026-04-22 15:35 | 42.10959 | -73.39666 | 19554 ft | 372 kts | 237° |
| 2026-04-22 15:35 | 42.09347 | -73.42375 | 19301 ft | 371 kts | 237° |
| 2026-04-22 15:35 | 42.07735 | -73.45082 | 19064 ft | 370 kts | 236° |
| 2026-04-22 15:36 | 42.06129 | -73.47777 | 18837 ft | 369 kts | 236° |
| 2026-04-22 15:36 | 42.04526 | -73.50465 | 18604 ft | 368 kts | 236° |
| 2026-04-22 15:36 | 42.02926 | -73.53146 | 18317 ft | 367 kts | 236° |
| 2026-04-22 15:36 | 42.01331 | -73.55817 | 18058 ft | 366 kts | 236° |
| 2026-04-22 15:37 | 41.99740 | -73.58478 | 17808 ft | 364 kts | 236° |
| 2026-04-22 15:37 | 41.98155 | -73.61125 | 17528 ft | 363 kts | 236° |
| 2026-04-22 15:37 | 41.96575 | -73.63762 | 17263 ft | 361 kts | 236° |
| 2026-04-22 15:37 | 41.95002 | -73.66385 | 16993 ft | 360 kts | 236° |
| 2026-04-22 15:38 | 41.93433 | -73.69000 | 16734 ft | 359 kts | 236° |
| 2026-04-22 15:38 | 41.90312 | -73.74195 | 16211 ft | 356 kts | 235° |
| 2026-04-22 15:38 | 41.88778 | -73.76744 | 15970 ft | 355 kts | 235° |
| 2026-04-22 15:39 | 41.87208 | -73.79351 | 15728 ft | 354 kts | 235° |
| 2026-04-22 15:39 | 41.85664 | -73.81913 | 15463 ft | 352 kts | 235° |
| 2026-04-22 15:39 | 41.84148 | -73.84426 | 15217 ft | 351 kts | 235° |
| 2026-04-22 15:39 | 41.82616 | -73.86963 | 14973 ft | 349 kts | 235° |
| 2026-04-22 15:40 | 41.81091 | -73.89487 | 14728 ft | 348 kts | 235° |
| 2026-04-22 15:40 | 41.79570 | -73.92002 | 14488 ft | 347 kts | 235° |
| 2026-04-22 15:40 | 41.78054 | -73.94509 | 14249 ft | 346 kts | 235° |
| 2026-04-22 15:40 | 41.76541 | -73.97006 | 14010 ft | 345 kts | 234° |
| 2026-04-22 15:41 | 41.75037 | -73.99488 | 13749 ft | 343 kts | 234° |
| 2026-04-22 15:41 | 41.73534 | -74.01964 | 13484 ft | 342 kts | 234° |
| 2026-04-22 15:41 | 41.72046 | -74.04414 | 13167 ft | 337 kts | 234° |
| 2026-04-22 15:41 | 41.70569 | -74.06845 | 12733 ft | 336 kts | 234° |
| 2026-04-22 15:42 | 41.69097 | -74.09266 | 12274 ft | 335 kts | 234° |
| 2026-04-22 15:42 | 41.67632 | -74.11674 | 11818 ft | 333 kts | 234° |
| 2026-04-22 15:42 | 41.66171 | -74.14073 | 11381 ft | 332 kts | 234° |
| 2026-04-22 15:42 | 41.64719 | -74.16455 | 10901 ft | 330 kts | 234° |
| 2026-04-22 15:43 | 41.63268 | -74.18832 | 10491 ft | 328 kts | 233° |
| 2026-04-22 15:43 | 41.61854 | -74.21145 | 10358 ft | 316 kts | 233° |
| 2026-04-22 15:43 | 41.60487 | -74.23379 | 10225 ft | 305 kts | 234° |
| 2026-04-22 15:43 | 41.59167 | -74.25534 | 10105 ft | 295 kts | 234° |
| 2026-04-22 15:44 | 41.57904 | -74.27598 | 9970 ft | 286 kts | 234° |
| 2026-04-22 15:44 | 41.56665 | -74.29620 | 9825 ft | 278 kts | 234° |
| 2026-04-22 15:44 | 41.55444 | -74.31605 | 9538 ft | 275 kts | 233° |
| 2026-04-22 15:44 | 41.54032 | -74.33323 | 9223 ft | 278 kts | 215° |
| 2026-04-22 15:45 | 41.52258 | -74.34374 | 8883 ft | 281 kts | 202° |
| 2026-04-22 15:45 | 41.50402 | -74.35174 | 8563 ft | 280 kts | 201° |
| 2026-04-22 15:45 | 41.48550 | -74.35950 | 8235 ft | 279 kts | 200° |
| 2026-04-22 15:45 | 41.46698 | -74.36732 | 7885 ft | 279 kts | 200° |
| 2026-04-22 15:46 | 41.44859 | -74.37517 | 7581 ft | 277 kts | 201° |
| 2026-04-22 15:46 | 41.43028 | -74.38301 | 7274 ft | 276 kts | 200° |
| 2026-04-22 15:46 | 41.41211 | -74.39082 | 7027 ft | 273 kts | 201° |
| 2026-04-22 15:46 | 41.39408 | -74.39866 | 6975 ft | 273 kts | 200° |
| 2026-04-22 15:47 | 41.37602 | -74.40640 | 6974 ft | 273 kts | 200° |
| 2026-04-22 15:47 | 41.35798 | -74.41412 | 6903 ft | 270 kts | 200° |
| 2026-04-22 15:47 | 41.34011 | -74.42177 | 6561 ft | 270 kts | 200° |
| 2026-04-22 15:47 | 41.32222 | -74.42945 | 6265 ft | 270 kts | 200° |
| 2026-04-22 15:48 | 41.30408 | -74.43603 | 6100 ft | 272 kts | 191° |
| 2026-04-22 15:48 | 41.28528 | -74.43435 | 5950 ft | 275 kts | 164° |
| 2026-04-22 15:48 | 41.26856 | -74.42188 | 5847 ft | 279 kts | 144° |
| 2026-04-22 15:48 | 41.25337 | -74.40576 | 5773 ft | 280 kts | 142° |
| 2026-04-22 15:49 | 41.23827 | -74.38933 | 5716 ft | 279 kts | 142° |
| 2026-04-22 15:49 | 41.22328 | -74.37313 | 5470 ft | 277 kts | 142° |
| 2026-04-22 15:49 | 41.20823 | -74.35699 | 5271 ft | 279 kts | 142° |
| 2026-04-22 15:49 | 41.19314 | -74.34083 | 5122 ft | 280 kts | 143° |
| 2026-04-22 15:50 | 41.17797 | -74.32472 | 4979 ft | 278 kts | 143° |
| 2026-04-22 15:50 | 41.16291 | -74.30874 | 4820 ft | 276 kts | 143° |
| 2026-04-22 15:50 | 41.14810 | -74.29303 | 4720 ft | 277 kts | 143° |
| 2026-04-22 15:50 | 41.13308 | -74.27710 | 4584 ft | 274 kts | 144° |
| 2026-04-22 15:51 | 41.11826 | -74.26144 | 4436 ft | 273 kts | 143° |
| 2026-04-22 15:51 | 41.10353 | -74.24581 | 4301 ft | 268 kts | 142° |
| 2026-04-22 15:51 | 41.08905 | -74.23042 | 4186 ft | 267 kts | 144° |
| 2026-04-22 15:51 | 41.07449 | -74.21508 | 4103 ft | 266 kts | 144° |
| 2026-04-22 15:52 | 41.06018 | -74.20001 | 3906 ft | 260 kts | 144° |
| 2026-04-22 15:52 | 41.04600 | -74.18521 | 3784 ft | 259 kts | 144° |
| 2026-04-22 15:52 | 41.03222 | -74.17071 | 3685 ft | 248 kts | 143° |
| 2026-04-22 15:52 | 41.01896 | -74.15666 | 3546 ft | 239 kts | 144° |
| 2026-04-22 15:53 | 41.00620 | -74.14317 | 3414 ft | 230 kts | 144° |
| 2026-04-22 15:53 | 40.99395 | -74.13024 | 3265 ft | 221 kts | 143° |
| 2026-04-22 15:53 | 40.98208 | -74.11774 | 3139 ft | 214 kts | 143° |
| 2026-04-22 15:53 | 40.97042 | -74.10547 | 3045 ft | 215 kts | 143° |
| 2026-04-22 15:54 | 40.95880 | -74.09326 | 2996 ft | 212 kts | 143° |
| 2026-04-22 15:54 | 40.94747 | -74.08135 | 2989 ft | 202 kts | 143° |
| 2026-04-22 15:54 | 40.93667 | -74.07001 | 2988 ft | 197 kts | 144° |
| 2026-04-22 15:54 | 40.92591 | -74.05873 | 3000 ft | 197 kts | 143° |
| 2026-04-22 15:55 | 40.91497 | -74.04785 | 3000 ft | 192 kts | 149° |
| 2026-04-22 15:55 | 40.90345 | -74.04130 | 3014 ft | 170 kts | 168° |
| 2026-04-22 15:55 | 40.89215 | -74.04035 | 2933 ft | 159 kts | 185° |
| 2026-04-22 15:55 | 40.88147 | -74.04403 | 2625 ft | 160 kts | 201° |
| 2026-04-22 15:56 | 40.87139 | -74.05024 | 2508 ft | 161 kts | 204° |
| 2026-04-22 15:56 | 40.86130 | -74.05683 | 2497 ft | 163 kts | 205° |
| 2026-04-22 15:56 | 40.85117 | -74.06344 | 2493 ft | 162 kts | 205° |
| 2026-04-22 15:56 | 40.84096 | -74.07003 | 2498 ft | 164 kts | 205° |
| 2026-04-22 15:57 | 40.83076 | -74.07664 | 2502 ft | 163 kts | 205° |
| 2026-04-22 15:57 | 40.82054 | -74.08319 | 2502 ft | 163 kts | 205° |
| 2026-04-22 15:57 | 40.81081 | -74.08943 | 2473 ft | 146 kts | 205° |
| 2026-04-22 15:57 | 40.80218 | -74.09500 | 2281 ft | 133 kts | 204° |
| 2026-04-22 15:58 | 40.79419 | -74.10007 | 2105 ft | 124 kts | 203° |
| 2026-04-22 15:58 | 40.78642 | -74.10495 | 1941 ft | 124 kts | 202° |
| 2026-04-22 15:58 | 40.77852 | -74.10979 | 1787 ft | 127 kts | 202° |
| 2026-04-22 15:58 | 40.77044 | -74.11471 | 1600 ft | 128 kts | 204° |
| 2026-04-22 15:59 | 40.76247 | -74.11990 | 1438 ft | 127 kts | 204° |
| 2026-04-22 15:59 | 40.75465 | -74.12508 | 1255 ft | 125 kts | 204° |
| 2026-04-22 15:59 | 40.74687 | -74.13023 | 1056 ft | 126 kts | 202° |
| 2026-04-22 15:59 | 40.73892 | -74.13527 | 865 ft | 128 kts | 200° |
| 2026-04-22 16:00 | 40.73348 | -74.13865 | 760 ft | 128 kts | 202° |
| 2026-04-22 16:00 | 40.72283 | -74.14544 | 520 ft | 129 kts | 202° |
| 2026-04-22 16:00 | 40.71477 | -74.15068 | 364 ft | 129 kts | 200° |
| 2026-04-22 16:00 | 40.70662 | -74.15575 | 218 ft | 130 kts | 202° |
| 2026-04-22 16:01 | 40.69848 | -74.16101 | 66 ft | 130 kts | 201° |
| 2026-04-22 16:01 | 40.69077 | -74.16586 | 27 ft | 103 kts | 205° |
| 2026-04-22 16:01 | 40.68595 | -74.16894 | 29 ft | 51 kts | 206° |
| 2026-04-22 16:01 | 40.68364 | -74.17049 | 27 ft | 34 kts | 213° |
| 2026-04-22 16:02 | 40.68213 | -74.17275 | 29 ft | 26 kts | 236° |
| 2026-04-22 16:02 | 40.68167 | -74.17364 | 28 ft | 16 kts | 235° |
| 2026-04-22 16:02 | 40.68146 | -74.17450 | 29 ft | 10 kts | 284° |
| 2026-04-22 16:02 | 40.68178 | -74.17537 | 28 ft | 11 kts | 295° |
| 2026-04-22 16:03 | 40.68214 | -74.17637 | 27 ft | 13 kts | 296° |
| 2026-04-22 16:03 | 40.68280 | -74.17684 | 31 ft | 10 kts | 328° |
| 2026-04-22 16:03 | 40.68345 | -74.17711 | 29 ft | 10 kts | 12° |
| 2026-04-22 16:03 | 40.68415 | -74.17668 | 26 ft | 12 kts | 26° |
| 2026-04-22 16:04 | 40.68511 | -74.17607 | 26 ft | 18 kts | 26° |
| 2026-04-22 16:04 | 40.68639 | -74.17525 | 26 ft | 22 kts | 26° |
| 2026-04-22 16:04 | 40.68781 | -74.17435 | 26 ft | 23 kts | 25° |
| 2026-04-22 16:04 | 40.68929 | -74.17341 | 29 ft | 21 kts | 26° |
| 2026-04-22 16:05 | 40.69022 | -74.17282 | 32 ft | 15 kts | 26° |
| 2026-04-22 16:05 | 40.69087 | -74.17251 | 29 ft | 6 kts | 353° |
| 2026-04-22 16:05 | 40.69107 | -74.17285 | 30 ft | 5 kts | 286° |
| 2026-04-22 16:05 | 40.69112 | -74.17333 | 31 ft | 4 kts | 296° |
| 2026-04-22 16:06 | 40.69134 | -74.17359 | 32 ft | 3 kts | 321° |
| 2026-04-22 16:06 | 40.69136 | -74.17362 | 32 ft | 0 kts | 321° |